sensor_id;sensor_type;location;lat;lon;timestamp;temperature;humidity
57088;DHT22;42965;52.846;6.614;2023-04-28T00:02:02;7.40;99.90
57088;DHT22;42965;52.846;6.614;2023-04-28T00:04:28;7.40;99.90
57088;DHT22;42965;52.846;6.614;2023-04-28T00:06:54;7.40;99.90
57088;DHT22;42965;52.846;6.614;2023-04-28T00:09:21;7.40;99.90
57088;DHT22;42965;52.846;6.614;2023-04-28T00:11:47;7.40;99.90
57088;DHT22;42965;52.846;6.614;2023-04-28T00:14:13;7.30;99.90
57088;DHT22;42965;52.846;6.614;2023-04-28T00:16:39;7.30;99.90
57088;DHT22;42965;52.846;6.614;2023-04-28T00:19:06;7.40;99.90
57088;DHT22;42965;52.846;6.614;2023-04-28T00:21:32;7.30;99.90
57088;DHT22;42965;52.846;6.614;2023-04-28T00:23:59;7.30;99.90
57088;DHT22;42965;52.846;6.614;2023-04-28T00:26:25;7.30;99.90
57088;DHT22;42965;52.846;6.614;2023-04-28T00:28:51;7.30;99.90
57088;DHT22;42965;52.846;6.614;2023-04-28T00:31:17;7.30;99.90
57088;DHT22;42965;52.846;6.614;2023-04-28T00:33:44;7.20;99.90
57088;DHT22;42965;52.846;6.614;2023-04-28T00:36:10;7.20;99.90
57088;DHT22;42965;52.846;6.614;2023-04-28T00:38:37;7.30;99.90
57088;DHT22;42965;52.846;6.614;2023-04-28T00:41:03;7.20;99.90
57088;DHT22;42965;52.846;6.614;2023-04-28T00:43:29;7.20;99.90
57088;DHT22;42965;52.846;6.614;2023-04-28T00:45:55;7.20;99.90
57088;DHT22;42965;52.846;6.614;2023-04-28T00:48:22;7.20;99.90
57088;DHT22;42965;52.846;6.614;2023-04-28T00:50:49;7.20;99.90
57088;DHT22;42965;52.846;6.614;2023-04-28T00:53:16;7.10;99.90
57088;DHT22;42965;52.846;6.614;2023-04-28T00:55:42;7.10;99.90
57088;DHT22;42965;52.846;6.614;2023-04-28T00:58:10;7.10;99.90
57088;DHT22;42965;52.846;6.614;2023-04-28T01:00:37;7.10;99.90
57088;DHT22;42965;52.846;6.614;2023-04-28T01:03:03;7.00;99.90
57088;DHT22;42965;52.846;6.614;2023-04-28T01:05:34;7.10;99.90
57088;DHT22;42965;52.846;6.614;2023-04-28T01:08:01;7.10;99.90
57088;DHT22;42965;52.846;6.614;2023-04-28T01:10:27;7.10;99.90
57088;DHT22;42965;52.846;6.614;2023-04-28T01:12:54;7.10;99.90
57088;DHT22;42965;52.846;6.614;2023-04-28T01:15:21;7.10;99.90
57088;DHT22;42965;52.846;6.614;2023-04-28T01:17:50;7.10;99.90
57088;DHT22;42965;52.846;6.614;2023-04-28T01:20:16;7.10;99.90
57088;DHT22;42965;52.846;6.614;2023-04-28T01:22:43;7.10;99.90
57088;DHT22;42965;52.846;6.614;2023-04-28T01:25:09;7.10;99.90
57088;DHT22;42965;52.846;6.614;2023-04-28T01:27:35;7.10;99.90
57088;DHT22;42965;52.846;6.614;2023-04-28T01:30:02;7.10;99.90
57088;DHT22;42965;52.846;6.614;2023-04-28T01:32:28;7.10;99.90
57088;DHT22;42965;52.846;6.614;2023-04-28T01:34:55;7.10;99.90
57088;DHT22;42965;52.846;6.614;2023-04-28T01:37:21;7.00;99.90
57088;DHT22;42965;52.846;6.614;2023-04-28T01:39:47;7.00;99.90
57088;DHT22;42965;52.846;6.614;2023-04-28T01:42:13;7.00;99.90
57088;DHT22;42965;52.846;6.614;2023-04-28T01:44:40;7.00;99.90
57088;DHT22;42965;52.846;6.614;2023-04-28T01:47:06;7.00;99.90
57088;DHT22;42965;52.846;6.614;2023-04-28T01:49:34;7.00;99.90
57088;DHT22;42965;52.846;6.614;2023-04-28T01:52:00;7.00;99.90
57088;DHT22;42965;52.846;6.614;2023-04-28T01:54:27;7.00;99.90
57088;DHT22;42965;52.846;6.614;2023-04-28T01:56:53;7.00;99.90
57088;DHT22;42965;52.846;6.614;2023-04-28T01:59:20;7.00;99.90
57088;DHT22;42965;52.846;6.614;2023-04-28T02:01:46;7.00;99.90
57088;DHT22;42965;52.846;6.614;2023-04-28T02:04:13;7.00;99.90
57088;DHT22;42965;52.846;6.614;2023-04-28T02:06:39;7.00;99.90
57088;DHT22;42965;52.846;6.614;2023-04-28T02:09:06;7.00;99.90
57088;DHT22;42965;52.846;6.614;2023-04-28T02:11:33;7.00;99.90
57088;DHT22;42965;52.846;6.614;2023-04-28T02:13:59;7.00;99.90
57088;DHT22;42965;52.846;6.614;2023-04-28T02:16:25;7.00;99.90
57088;DHT22;42965;52.846;6.614;2023-04-28T02:18:51;7.10;99.90
57088;DHT22;42965;52.846;6.614;2023-04-28T02:21:18;7.00;99.90
57088;DHT22;42965;52.846;6.614;2023-04-28T02:23:44;7.10;99.90
57088;DHT22;42965;52.846;6.614;2023-04-28T02:26:10;7.10;99.90
57088;DHT22;42965;52.846;6.614;2023-04-28T02:28:37;7.10;99.90
57088;DHT22;42965;52.846;6.614;2023-04-28T02:31:09;7.10;99.90
57088;DHT22;42965;52.846;6.614;2023-04-28T02:33:37;7.00;99.90
57088;DHT22;42965;52.846;6.614;2023-04-28T02:36:04;7.10;99.90
57088;DHT22;42965;52.846;6.614;2023-04-28T02:38:31;7.00;99.90
57088;DHT22;42965;52.846;6.614;2023-04-28T02:41:05;7.00;99.90
57088;DHT22;42965;52.846;6.614;2023-04-28T02:43:32;7.00;99.90
57088;DHT22;42965;52.846;6.614;2023-04-28T02:45:59;7.00;99.90
57088;DHT22;42965;52.846;6.614;2023-04-28T02:48:26;6.90;99.90
57088;DHT22;42965;52.846;6.614;2023-04-28T02:50:53;6.90;99.90
57088;DHT22;42965;52.846;6.614;2023-04-28T02:53:20;6.80;99.90
57088;DHT22;42965;52.846;6.614;2023-04-28T02:55:47;6.80;99.90
57088;DHT22;42965;52.846;6.614;2023-04-28T02:58:14;6.80;99.90
57088;DHT22;42965;52.846;6.614;2023-04-28T03:00:43;6.80;99.90
57088;DHT22;42965;52.846;6.614;2023-04-28T03:03:09;6.80;99.90
57088;DHT22;42965;52.846;6.614;2023-04-28T03:05:36;6.70;99.90
57088;DHT22;42965;52.846;6.614;2023-04-28T03:08:02;6.70;99.90
57088;DHT22;42965;52.846;6.614;2023-04-28T03:10:28;6.70;99.90
57088;DHT22;42965;52.846;6.614;2023-04-28T03:12:55;6.70;99.90
57088;DHT22;42965;52.846;6.614;2023-04-28T03:15:22;6.70;99.90
57088;DHT22;42965;52.846;6.614;2023-04-28T03:17:48;6.70;99.90
57088;DHT22;42965;52.846;6.614;2023-04-28T03:20:14;6.70;99.90
57088;DHT22;42965;52.846;6.614;2023-04-28T03:22:41;6.60;99.90
57088;DHT22;42965;52.846;6.614;2023-04-28T03:25:07;6.60;99.90
57088;DHT22;42965;52.846;6.614;2023-04-28T03:27:40;6.60;99.90
57088;DHT22;42965;52.846;6.614;2023-04-28T03:30:06;6.60;99.90
57088;DHT22;42965;52.846;6.614;2023-04-28T03:32:33;6.70;99.90
57088;DHT22;42965;52.846;6.614;2023-04-28T03:34:59;6.70;99.90
57088;DHT22;42965;52.846;6.614;2023-04-28T03:37:25;6.70;99.90
57088;DHT22;42965;52.846;6.614;2023-04-28T03:39:52;6.70;99.90
57088;DHT22;42965;52.846;6.614;2023-04-28T03:42:18;6.70;99.90
57088;DHT22;42965;52.846;6.614;2023-04-28T03:45:08;6.70;99.90
57088;DHT22;42965;52.846;6.614;2023-04-28T03:47:34;6.70;99.90
57088;DHT22;42965;52.846;6.614;2023-04-28T03:50:01;6.70;99.90
57088;DHT22;42965;52.846;6.614;2023-04-28T03:52:27;6.80;99.90
57088;DHT22;42965;52.846;6.614;2023-04-28T03:54:54;6.70;99.90
57088;DHT22;42965;52.846;6.614;2023-04-28T03:57:21;6.70;99.90
57088;DHT22;42965;52.846;6.614;2023-04-28T03:59:47;6.70;99.90
57088;DHT22;42965;52.846;6.614;2023-04-28T04:02:13;6.70;99.90
57088;DHT22;42965;52.846;6.614;2023-04-28T04:04:39;6.70;99.90
57088;DHT22;42965;52.846;6.614;2023-04-28T04:07:06;6.70;99.90
57088;DHT22;42965;52.846;6.614;2023-04-28T04:09:33;6.70;99.90
57088;DHT22;42965;52.846;6.614;2023-04-28T04:11:59;6.70;99.90
57088;DHT22;42965;52.846;6.614;2023-04-28T04:14:26;6.70;99.90
57088;DHT22;42965;52.846;6.614;2023-04-28T04:16:52;6.80;99.90
57088;DHT22;42965;52.846;6.614;2023-04-28T04:19:20;6.70;99.90
57088;DHT22;42965;52.846;6.614;2023-04-28T04:21:52;6.70;99.90
57088;DHT22;42965;52.846;6.614;2023-04-28T04:24:18;6.70;99.90
57088;DHT22;42965;52.846;6.614;2023-04-28T04:26:45;6.70;99.90
57088;DHT22;42965;52.846;6.614;2023-04-28T04:29:27;6.70;99.90
57088;DHT22;42965;52.846;6.614;2023-04-28T04:31:54;6.70;99.90
57088;DHT22;42965;52.846;6.614;2023-04-28T04:34:21;6.70;99.90
57088;DHT22;42965;52.846;6.614;2023-04-28T04:36:47;6.70;99.90
57088;DHT22;42965;52.846;6.614;2023-04-28T04:39:13;6.70;99.90
57088;DHT22;42965;52.846;6.614;2023-04-28T04:41:40;6.80;99.90
57088;DHT22;42965;52.846;6.614;2023-04-28T04:44:31;6.80;99.90
57088;DHT22;42965;52.846;6.614;2023-04-28T04:46:58;6.80;99.90
57088;DHT22;42965;52.846;6.614;2023-04-28T04:49:25;6.80;99.90
57088;DHT22;42965;52.846;6.614;2023-04-28T04:51:51;6.90;99.90
57088;DHT22;42965;52.846;6.614;2023-04-28T04:54:18;6.90;99.90
57088;DHT22;42965;52.846;6.614;2023-04-28T04:56:44;6.90;99.90
57088;DHT22;42965;52.846;6.614;2023-04-28T04:59:14;6.90;99.90
57088;DHT22;42965;52.846;6.614;2023-04-28T05:01:54;6.90;99.90
57088;DHT22;42965;52.846;6.614;2023-04-28T05:04:20;6.90;99.90
57088;DHT22;42965;52.846;6.614;2023-04-28T05:06:47;6.90;99.90
57088;DHT22;42965;52.846;6.614;2023-04-28T05:09:14;6.90;99.90
57088;DHT22;42965;52.846;6.614;2023-04-28T05:11:40;6.90;99.90
57088;DHT22;42965;52.846;6.614;2023-04-28T05:14:06;7.00;99.90
57088;DHT22;42965;52.846;6.614;2023-04-28T05:16:33;7.00;99.90
57088;DHT22;42965;52.846;6.614;2023-04-28T05:19:09;7.10;99.90
57088;DHT22;42965;52.846;6.614;2023-04-28T05:21:35;7.10;99.90
57088;DHT22;42965;52.846;6.614;2023-04-28T05:24:02;7.20;99.90
57088;DHT22;42965;52.846;6.614;2023-04-28T05:26:29;7.20;99.90
57088;DHT22;42965;52.846;6.614;2023-04-28T05:28:59;7.30;99.90
57088;DHT22;42965;52.846;6.614;2023-04-28T05:31:26;7.40;99.90
57088;DHT22;42965;52.846;6.614;2023-04-28T05:33:53;7.40;99.90
57088;DHT22;42965;52.846;6.614;2023-04-28T05:36:20;7.50;99.90
57088;DHT22;42965;52.846;6.614;2023-04-28T05:38:47;7.50;99.90
57088;DHT22;42965;52.846;6.614;2023-04-28T05:41:13;7.50;99.90
57088;DHT22;42965;52.846;6.614;2023-04-28T05:43:40;7.50;99.90
57088;DHT22;42965;52.846;6.614;2023-04-28T05:46:07;7.50;99.90
57088;DHT22;42965;52.846;6.614;2023-04-28T05:48:36;7.50;99.90
57088;DHT22;42965;52.846;6.614;2023-04-28T05:51:03;7.50;99.90
57088;DHT22;42965;52.846;6.614;2023-04-28T05:53:29;7.60;99.90
57088;DHT22;42965;52.846;6.614;2023-04-28T05:55:56;7.60;99.90
57088;DHT22;42965;52.846;6.614;2023-04-28T05:58:23;7.60;99.90
57088;DHT22;42965;52.846;6.614;2023-04-28T06:00:49;7.60;99.90
57088;DHT22;42965;52.846;6.614;2023-04-28T06:03:16;7.60;99.90
57088;DHT22;42965;52.846;6.614;2023-04-28T06:05:45;7.60;99.90
57088;DHT22;42965;52.846;6.614;2023-04-28T06:08:12;7.60;99.90
57088;DHT22;42965;52.846;6.614;2023-04-28T06:10:39;7.70;99.90
57088;DHT22;42965;52.846;6.614;2023-04-28T06:13:06;7.70;99.90
57088;DHT22;42965;52.846;6.614;2023-04-28T06:15:32;7.70;99.90
57088;DHT22;42965;52.846;6.614;2023-04-28T06:17:59;7.60;99.90
57088;DHT22;42965;52.846;6.614;2023-04-28T06:20:25;7.70;99.90
57088;DHT22;42965;52.846;6.614;2023-04-28T06:22:53;7.60;99.90
57088;DHT22;42965;52.846;6.614;2023-04-28T06:25:19;7.60;99.90
57088;DHT22;42965;52.846;6.614;2023-04-28T06:27:46;7.60;99.90
57088;DHT22;42965;52.846;6.614;2023-04-28T06:30:17;7.50;99.90
57088;DHT22;42965;52.846;6.614;2023-04-28T06:32:45;7.60;99.90
57088;DHT22;42965;52.846;6.614;2023-04-28T06:35:11;7.50;99.90
57088;DHT22;42965;52.846;6.614;2023-04-28T06:37:38;7.50;99.90
57088;DHT22;42965;52.846;6.614;2023-04-28T06:40:05;7.50;99.90
57088;DHT22;42965;52.846;6.614;2023-04-28T06:42:33;7.50;99.90
57088;DHT22;42965;52.846;6.614;2023-04-28T06:45:08;7.50;99.90
57088;DHT22;42965;52.846;6.614;2023-04-28T06:47:36;7.50;99.90
57088;DHT22;42965;52.846;6.614;2023-04-28T06:50:08;7.50;99.90
57088;DHT22;42965;52.846;6.614;2023-04-28T06:52:35;7.60;99.90
57088;DHT22;42965;52.846;6.614;2023-04-28T06:55:08;7.60;99.90
57088;DHT22;42965;52.846;6.614;2023-04-28T06:57:35;7.60;99.90
57088;DHT22;42965;52.846;6.614;2023-04-28T07:00:03;7.60;99.90
57088;DHT22;42965;52.846;6.614;2023-04-28T07:02:30;7.70;99.90
57088;DHT22;42965;52.846;6.614;2023-04-28T07:04:56;7.70;99.90
57088;DHT22;42965;52.846;6.614;2023-04-28T07:07:23;7.80;99.90
57088;DHT22;42965;52.846;6.614;2023-04-28T07:09:50;7.90;99.90
57088;DHT22;42965;52.846;6.614;2023-04-28T07:12:23;7.90;99.90
57088;DHT22;42965;52.846;6.614;2023-04-28T07:14:49;8.10;99.90
57088;DHT22;42965;52.846;6.614;2023-04-28T07:17:16;8.10;99.90
57088;DHT22;42965;52.846;6.614;2023-04-28T07:19:43;8.20;99.90
57088;DHT22;42965;52.846;6.614;2023-04-28T07:22:09;8.30;99.90
57088;DHT22;42965;52.846;6.614;2023-04-28T07:24:36;8.40;99.90
57088;DHT22;42965;52.846;6.614;2023-04-28T07:27:02;8.50;99.90
57088;DHT22;42965;52.846;6.614;2023-04-28T07:29:29;8.60;99.90
57088;DHT22;42965;52.846;6.614;2023-04-28T07:31:59;8.60;99.90
57088;DHT22;42965;52.846;6.614;2023-04-28T07:34:26;8.70;99.90
57088;DHT22;42965;52.846;6.614;2023-04-28T07:36:53;8.70;99.90
57088;DHT22;42965;52.846;6.614;2023-04-28T07:39:19;8.70;99.90
57088;DHT22;42965;52.846;6.614;2023-04-28T07:41:46;8.70;99.90
57088;DHT22;42965;52.846;6.614;2023-04-28T07:44:12;8.80;99.90
57088;DHT22;42965;52.846;6.614;2023-04-28T07:46:39;8.90;99.90
57088;DHT22;42965;52.846;6.614;2023-04-28T07:49:05;9.00;99.90
57088;DHT22;42965;52.846;6.614;2023-04-28T07:51:33;9.10;99.90
57088;DHT22;42965;52.846;6.614;2023-04-28T07:53:59;9.20;99.90
57088;DHT22;42965;52.846;6.614;2023-04-28T07:56:26;9.30;99.90
57088;DHT22;42965;52.846;6.614;2023-04-28T07:58:52;9.40;99.90
57088;DHT22;42965;52.846;6.614;2023-04-28T08:01:19;9.50;99.90
57088;DHT22;42965;52.846;6.614;2023-04-28T08:03:46;9.60;99.90
57088;DHT22;42965;52.846;6.614;2023-04-28T08:06:15;9.70;99.90
57088;DHT22;42965;52.846;6.614;2023-04-28T08:08:42;9.80;99.90
57088;DHT22;42965;52.846;6.614;2023-04-28T08:11:08;9.90;99.90
57088;DHT22;42965;52.846;6.614;2023-04-28T08:13:36;9.80;99.90
57088;DHT22;42965;52.846;6.614;2023-04-28T08:16:02;9.90;99.90
57088;DHT22;42965;52.846;6.614;2023-04-28T08:18:29;9.90;99.90
57088;DHT22;42965;52.846;6.614;2023-04-28T08:20:55;10.10;99.90
57088;DHT22;42965;52.846;6.614;2023-04-28T08:23:22;10.20;99.90
57088;DHT22;42965;52.846;6.614;2023-04-28T08:25:49;10.40;99.90
57088;DHT22;42965;52.846;6.614;2023-04-28T08:28:15;10.40;99.90
57088;DHT22;42965;52.846;6.614;2023-04-28T08:30:45;10.50;99.90
57088;DHT22;42965;52.846;6.614;2023-04-28T08:33:14;10.60;99.90
57088;DHT22;42965;52.846;6.614;2023-04-28T08:35:41;10.50;99.90
57088;DHT22;42965;52.846;6.614;2023-04-28T08:38:11;10.50;99.90
57088;DHT22;42965;52.846;6.614;2023-04-28T08:40:40;10.40;99.90
57088;DHT22;42965;52.846;6.614;2023-04-28T08:43:09;10.40;99.90
57088;DHT22;42965;52.846;6.614;2023-04-28T08:45:40;10.30;99.90
57088;DHT22;42965;52.846;6.614;2023-04-28T08:48:26;10.40;99.90
57088;DHT22;42965;52.846;6.614;2023-04-28T08:50:53;10.40;99.90
57088;DHT22;42965;52.846;6.614;2023-04-28T08:53:27;10.40;99.90
57088;DHT22;42965;52.846;6.614;2023-04-28T08:55:55;10.50;99.90
57088;DHT22;42965;52.846;6.614;2023-04-28T08:58:26;10.50;99.90
57088;DHT22;42965;52.846;6.614;2023-04-28T09:00:52;10.50;99.90
57088;DHT22;42965;52.846;6.614;2023-04-28T09:03:19;10.60;99.90
57088;DHT22;42965;52.846;6.614;2023-04-28T09:05:46;10.70;99.90
57088;DHT22;42965;52.846;6.614;2023-04-28T09:08:14;10.90;99.90
57088;DHT22;42965;52.846;6.614;2023-04-28T09:10:40;11.10;99.90
57088;DHT22;42965;52.846;6.614;2023-04-28T09:13:07;11.50;99.90
57088;DHT22;42965;52.846;6.614;2023-04-28T09:15:36;12.10;99.90
57088;DHT22;42965;52.846;6.614;2023-04-28T09:18:05;12.30;99.90
57088;DHT22;42965;52.846;6.614;2023-04-28T09:20:35;12.20;99.90
57088;DHT22;42965;52.846;6.614;2023-04-28T09:28:24;12.20;99.90
57088;DHT22;42965;52.846;6.614;2023-04-28T09:30:51;12.40;99.90
57088;DHT22;42965;52.846;6.614;2023-04-28T09:33:18;12.50;99.90
57088;DHT22;42965;52.846;6.614;2023-04-28T09:35:47;12.60;99.90
57088;DHT22;42965;52.846;6.614;2023-04-28T09:38:15;12.60;99.90
57088;DHT22;42965;52.846;6.614;2023-04-28T09:40:59;12.50;99.90
57088;DHT22;42965;52.846;6.614;2023-04-28T09:43:30;12.70;99.90
57088;DHT22;42965;52.846;6.614;2023-04-28T09:46:01;12.70;99.90
57088;DHT22;42965;52.846;6.614;2023-04-28T09:48:36;12.70;99.90
57088;DHT22;42965;52.846;6.614;2023-04-28T09:51:05;12.90;99.90
57088;DHT22;42965;52.846;6.614;2023-04-28T09:53:33;13.20;99.90
57088;DHT22;42965;52.846;6.614;2023-04-28T09:56:02;13.70;99.90
57088;DHT22;42965;52.846;6.614;2023-04-28T09:58:30;14.60;99.90
57088;DHT22;42965;52.846;6.614;2023-04-28T10:00:59;15.30;99.90
57088;DHT22;42965;52.846;6.614;2023-04-28T10:03:27;15.40;99.90
57088;DHT22;42965;52.846;6.614;2023-04-28T10:05:55;15.60;99.90
57088;DHT22;42965;52.846;6.614;2023-04-28T10:08:24;15.70;99.90
57088;DHT22;42965;52.846;6.614;2023-04-28T10:10:52;15.60;99.90
57088;DHT22;42965;52.846;6.614;2023-04-28T10:13:20;15.30;99.90
57088;DHT22;42965;52.846;6.614;2023-04-28T10:15:51;15.00;99.90
57088;DHT22;42965;52.846;6.614;2023-04-28T10:18:22;14.70;99.90
57088;DHT22;42965;52.846;6.614;2023-04-28T10:20:54;14.40;99.90
57088;DHT22;42965;52.846;6.614;2023-04-28T10:26:02;14.20;99.90
57088;DHT22;42965;52.846;6.614;2023-04-28T10:28:29;14.10;99.90
57088;DHT22;42965;52.846;6.614;2023-04-28T10:31:11;14.10;99.90
57088;DHT22;42965;52.846;6.614;2023-04-28T10:33:39;13.90;99.90
57088;DHT22;42965;52.846;6.614;2023-04-28T10:36:07;13.90;99.90
57088;DHT22;42965;52.846;6.614;2023-04-28T10:38:34;13.90;99.90
57088;DHT22;42965;52.846;6.614;2023-04-28T10:41:01;14.10;99.90
57088;DHT22;42965;52.846;6.614;2023-04-28T10:58:40;14.60;99.90
57088;DHT22;42965;52.846;6.614;2023-04-28T11:06:21;14.60;99.90
57088;DHT22;42965;52.846;6.614;2023-04-28T11:08:56;14.50;99.90
57088;DHT22;42965;52.846;6.614;2023-04-28T11:11:27;14.40;99.90
57088;DHT22;42965;52.846;6.614;2023-04-28T11:17:06;14.30;99.90
57088;DHT22;42965;52.846;6.614;2023-04-28T11:22:02;14.30;99.90
57088;DHT22;42965;52.846;6.614;2023-04-28T11:24:29;14.30;99.90
57088;DHT22;42965;52.846;6.614;2023-04-28T11:26:56;14.20;99.90
57088;DHT22;42965;52.846;6.614;2023-04-28T11:29:49;14.30;99.90
57088;DHT22;42965;52.846;6.614;2023-04-28T11:32:16;14.30;99.90
57088;DHT22;42965;52.846;6.614;2023-04-28T11:34:50;14.20;99.90
57088;DHT22;42965;52.846;6.614;2023-04-28T11:37:17;14.20;99.90
57088;DHT22;42965;52.846;6.614;2023-04-28T11:39:49;14.30;99.90
57088;DHT22;42965;52.846;6.614;2023-04-28T11:42:15;14.20;99.90
57088;DHT22;42965;52.846;6.614;2023-04-28T11:44:52;14.40;99.90
57088;DHT22;42965;52.846;6.614;2023-04-28T11:47:29;14.40;99.90
57088;DHT22;42965;52.846;6.614;2023-04-28T11:49:56;14.50;99.90
57088;DHT22;42965;52.846;6.614;2023-04-28T11:52:25;14.60;99.90
57088;DHT22;42965;52.846;6.614;2023-04-28T11:54:59;14.50;99.90
57088;DHT22;42965;52.846;6.614;2023-04-28T11:57:27;14.60;99.90
57088;DHT22;42965;52.846;6.614;2023-04-28T12:00:10;14.40;99.90
57088;DHT22;42965;52.846;6.614;2023-04-28T12:02:36;14.40;99.90
57088;DHT22;42965;52.846;6.614;2023-04-28T12:05:07;14.30;99.90
57088;DHT22;42965;52.846;6.614;2023-04-28T12:07:41;14.20;99.90
57088;DHT22;42965;52.846;6.614;2023-04-28T12:10:13;14.20;99.90
57088;DHT22;42965;52.846;6.614;2023-04-28T12:12:44;14.20;99.90
57088;DHT22;42965;52.846;6.614;2023-04-28T12:15:15;14.20;99.90
57088;DHT22;42965;52.846;6.614;2023-04-28T12:17:43;14.20;99.90
57088;DHT22;42965;52.846;6.614;2023-04-28T12:20:11;14.30;99.90
57088;DHT22;42965;52.846;6.614;2023-04-28T12:22:58;14.50;99.90
57088;DHT22;42965;52.846;6.614;2023-04-28T12:25:24;14.50;99.90
57088;DHT22;42965;52.846;6.614;2023-04-28T12:28:04;14.50;99.90
57088;DHT22;42965;52.846;6.614;2023-04-28T12:30:33;14.50;99.90
57088;DHT22;42965;52.846;6.614;2023-04-28T12:33:01;14.40;99.90
57088;DHT22;42965;52.846;6.614;2023-04-28T12:35:28;14.40;99.90
57088;DHT22;42965;52.846;6.614;2023-04-28T12:37:55;14.30;99.90
57088;DHT22;42965;52.846;6.614;2023-04-28T12:40:23;14.20;99.90
57088;DHT22;42965;52.846;6.614;2023-04-28T12:42:50;14.20;99.90
57088;DHT22;42965;52.846;6.614;2023-04-28T12:45:17;14.20;99.90
57088;DHT22;42965;52.846;6.614;2023-04-28T12:47:43;14.20;99.90
57088;DHT22;42965;52.846;6.614;2023-04-28T12:50:10;14.20;99.90
57088;DHT22;42965;52.846;6.614;2023-04-28T12:52:36;14.10;99.90
57088;DHT22;42965;52.846;6.614;2023-04-28T12:55:03;13.90;99.90
57088;DHT22;42965;52.846;6.614;2023-04-28T12:57:30;13.80;99.90
57088;DHT22;42965;52.846;6.614;2023-04-28T12:59:57;13.70;99.90
57088;DHT22;42965;52.846;6.614;2023-04-28T13:02:23;13.70;99.90
57088;DHT22;42965;52.846;6.614;2023-04-28T13:04:49;13.60;99.90
57088;DHT22;42965;52.846;6.614;2023-04-28T13:07:17;13.50;99.90
57088;DHT22;42965;52.846;6.614;2023-04-28T13:09:44;13.40;99.90
57088;DHT22;42965;52.846;6.614;2023-04-28T13:12:12;13.30;99.90
57088;DHT22;42965;52.846;6.614;2023-04-28T13:14:39;13.30;99.90
57088;DHT22;42965;52.846;6.614;2023-04-28T13:17:05;13.30;99.90
57088;DHT22;42965;52.846;6.614;2023-04-28T13:19:32;13.30;99.90
57088;DHT22;42965;52.846;6.614;2023-04-28T13:21:59;13.20;99.90
57088;DHT22;42965;52.846;6.614;2023-04-28T13:24:26;13.10;99.90
57088;DHT22;42965;52.846;6.614;2023-04-28T13:26:52;13.10;99.90
57088;DHT22;42965;52.846;6.614;2023-04-28T13:29:19;13.00;99.90
57088;DHT22;42965;52.846;6.614;2023-04-28T13:31:45;13.00;99.90
57088;DHT22;42965;52.846;6.614;2023-04-28T13:34:12;13.00;99.90
57088;DHT22;42965;52.846;6.614;2023-04-28T13:36:45;13.00;99.90
57088;DHT22;42965;52.846;6.614;2023-04-28T13:39:13;13.00;99.90
57088;DHT22;42965;52.846;6.614;2023-04-28T13:41:39;13.00;99.90
57088;DHT22;42965;52.846;6.614;2023-04-28T13:44:06;13.00;99.90
57088;DHT22;42965;52.846;6.614;2023-04-28T13:46:32;13.00;99.90
57088;DHT22;42965;52.846;6.614;2023-04-28T13:48:59;13.00;99.90
57088;DHT22;42965;52.846;6.614;2023-04-28T13:51:26;13.00;99.90
57088;DHT22;42965;52.846;6.614;2023-04-28T13:53:54;13.00;99.90
57088;DHT22;42965;52.846;6.614;2023-04-28T13:56:20;13.00;99.90
57088;DHT22;42965;52.846;6.614;2023-04-28T13:58:47;13.00;99.90
57088;DHT22;42965;52.846;6.614;2023-04-28T14:01:19;13.10;99.90
57088;DHT22;42965;52.846;6.614;2023-04-28T14:03:48;13.10;99.90
57088;DHT22;42965;52.846;6.614;2023-04-28T14:06:16;13.10;99.90
57088;DHT22;42965;52.846;6.614;2023-04-28T14:08:44;13.10;99.90
57088;DHT22;42965;52.846;6.614;2023-04-28T14:11:10;13.10;99.90
57088;DHT22;42965;52.846;6.614;2023-04-28T14:13:37;13.10;99.90
57088;DHT22;42965;52.846;6.614;2023-04-28T14:16:03;13.10;99.90
57088;DHT22;42965;52.846;6.614;2023-04-28T14:18:30;13.20;99.90
57088;DHT22;42965;52.846;6.614;2023-04-28T14:20:59;13.20;99.90
57088;DHT22;42965;52.846;6.614;2023-04-28T14:23:27;13.20;99.90
57088;DHT22;42965;52.846;6.614;2023-04-28T14:25:53;13.20;99.90
57088;DHT22;42965;52.846;6.614;2023-04-28T14:28:22;13.20;99.90
57088;DHT22;42965;52.846;6.614;2023-04-28T14:30:48;13.20;99.90
57088;DHT22;42965;52.846;6.614;2023-04-28T14:33:15;13.20;99.90
57088;DHT22;42965;52.846;6.614;2023-04-28T14:35:41;13.20;99.90
57088;DHT22;42965;52.846;6.614;2023-04-28T14:38:08;13.30;99.90
57088;DHT22;42965;52.846;6.614;2023-04-28T14:40:35;13.30;99.90
57088;DHT22;42965;52.846;6.614;2023-04-28T14:43:01;13.40;99.90
57088;DHT22;42965;52.846;6.614;2023-04-28T14:45:27;13.40;99.90
57088;DHT22;42965;52.846;6.614;2023-04-28T14:47:54;13.40;99.90
57088;DHT22;42965;52.846;6.614;2023-04-28T14:50:21;13.40;99.90
57088;DHT22;42965;52.846;6.614;2023-04-28T14:52:47;13.40;99.90
57088;DHT22;42965;52.846;6.614;2023-04-28T14:55:15;13.50;99.90
57088;DHT22;42965;52.846;6.614;2023-04-28T14:57:41;13.50;99.90
57088;DHT22;42965;52.846;6.614;2023-04-28T15:00:08;13.40;99.90
57088;DHT22;42965;52.846;6.614;2023-04-28T15:02:35;13.40;99.90
57088;DHT22;42965;52.846;6.614;2023-04-28T15:05:02;13.50;99.90
57088;DHT22;42965;52.846;6.614;2023-04-28T15:07:28;13.50;99.90
57088;DHT22;42965;52.846;6.614;2023-04-28T15:09:59;13.60;99.90
57088;DHT22;42965;52.846;6.614;2023-04-28T15:12:26;13.60;99.90
57088;DHT22;42965;52.846;6.614;2023-04-28T15:14:55;13.60;99.90
57088;DHT22;42965;52.846;6.614;2023-04-28T15:17:22;13.50;99.90
57088;DHT22;42965;52.846;6.614;2023-04-28T15:19:49;13.50;99.90
57088;DHT22;42965;52.846;6.614;2023-04-28T15:22:18;13.50;99.90
57088;DHT22;42965;52.846;6.614;2023-04-28T15:24:45;13.50;99.90
57088;DHT22;42965;52.846;6.614;2023-04-28T15:27:14;13.40;99.90
57088;DHT22;42965;52.846;6.614;2023-04-28T15:29:41;13.40;99.90
57088;DHT22;42965;52.846;6.614;2023-04-28T15:32:07;13.50;99.90
57088;DHT22;42965;52.846;6.614;2023-04-28T15:34:34;13.40;99.90
57088;DHT22;42965;52.846;6.614;2023-04-28T15:37:08;13.40;99.90
57088;DHT22;42965;52.846;6.614;2023-04-28T15:39:48;13.40;99.90
57088;DHT22;42965;52.846;6.614;2023-04-28T15:42:15;13.40;99.90
57088;DHT22;42965;52.846;6.614;2023-04-28T15:44:41;13.40;99.90
57088;DHT22;42965;52.846;6.614;2023-04-28T15:47:08;13.40;99.90
57088;DHT22;42965;52.846;6.614;2023-04-28T15:49:34;13.30;99.90
57088;DHT22;42965;52.846;6.614;2023-04-28T15:52:00;13.30;99.90
57088;DHT22;42965;52.846;6.614;2023-04-28T15:54:28;13.30;99.90
57088;DHT22;42965;52.846;6.614;2023-04-28T15:56:54;13.30;99.90
57088;DHT22;42965;52.846;6.614;2023-04-28T15:59:21;13.30;99.90
57088;DHT22;42965;52.846;6.614;2023-04-28T16:01:47;13.30;99.90
57088;DHT22;42965;52.846;6.614;2023-04-28T16:04:16;13.30;99.90
57088;DHT22;42965;52.846;6.614;2023-04-28T16:06:44;13.20;99.90
57088;DHT22;42965;52.846;6.614;2023-04-28T16:09:10;13.30;99.90
57088;DHT22;42965;52.846;6.614;2023-04-28T16:11:40;13.20;99.90
57088;DHT22;42965;52.846;6.614;2023-04-28T16:14:07;13.20;99.90
57088;DHT22;42965;52.846;6.614;2023-04-28T16:16:33;13.00;99.90
57088;DHT22;42965;52.846;6.614;2023-04-28T16:18:59;13.00;99.90